Overview Statistics Trail Chart Weather Telemetry Raw packets
 

This is the latest recevied weather packets stored in our database for station/object HS5XHC-1. If no packets are shown the sender has not sent any weather packets the latest 10 day(s).

<< 45 46 47 48 49 50 51 >>
Time Temp. Humidity Pressure Rain* Wind** Luminosity Snow
1777166134 27.22° C 59% 970 hPa - - 0 W/m² -
1777165510 27.78° C 60% 970 hPa - - 0 W/m² -
1777164886 27.78° C 60% 970 hPa - - 0 W/m² -
1777164262 26.67° C 61% 969 hPa - - 0 W/m² -
1777163638 26.67° C 62% 969 hPa - - 0 W/m² -
1777163014 27.78° C 57% 969 hPa - - 0 W/m² -
1777162390 27.22° C 58% 969 hPa - - 0 W/m² -
1777161766 26.67° C 60% 969 hPa - - 0 W/m² -
1777161142 25.56° C 63% 969 hPa - - 0 W/m² -
1777160518 26.67° C 59% 969 hPa - - 0 W/m² -
1777159894 26.67° C 58% 969 hPa - - 0 W/m² -
1777159270 26.67° C 58% 969 hPa - - 0 W/m² -
1777158646 25.56° C 63% 968 hPa - - 0 W/m² -
1777158022 25.56° C 64% 969 hPa - - 0 W/m² -
1777157398 25° C 66% 969 hPa - - 0 W/m² -
1777156774 25.56° C 63% 968 hPa - - 0 W/m² -
1777156150 26.67° C 59% 968 hPa - - 0 W/m² -
1777155526 26.67° C 59% 968 hPa - - 0 W/m² -
1777154902 27.22° C 57% 968 hPa - - 0 W/m² -
1777154278 26.11° C 61% 968 hPa - - 0 W/m² -
1777153654 26.67° C 59% 968 hPa - - 0 W/m² -
1777153030 25.56° C 64% 968 hPa - - 0 W/m² -
1777152406 25.56° C 64% 968 hPa - - 0 W/m² -
1777151782 26.67° C 58% 968 hPa - - 0 W/m² -
1777151158 27.78° C 55% 967 hPa - - 0 W/m² -

* Rain since midnight (hover to see other rain measurements)
** Current wind speed in m/s (hover to see current wind gust speed)